Time;durP1;ratioP1;P1;durP2;ratioP2;P2;SDS_P1;SDS_P2;PMS_P1;PMS_P2;Temp;Humidity;BMP_temperature;BMP_pressure;BME280_temperature;BME280_humidity;BME280_pressure;Samples;Min_cycle;Max_cycle;Signal;HPM_P1;HPM_P2
2023/06/02 00:00:45;;;;;;;;;;;;;;;24.03;45.52;100990.59;2224819;79;51071;-77
2023/06/02 00:03:47;;;;;;;;;;;;;;;24.03;45.48;100989.23;2224947;77;50137;-77
2023/06/02 00:06:50;;;;;;;;;;;;;;;24.02;45.59;100992.99;2225051;79;51359;-77
2023/06/02 00:09:52;;;;;;;;;;;;;;;24.02;45.51;100990.28;2254877;77;50287;-77
2023/06/02 00:12:54;;;;;;;;;;;;;;;24.04;45.66;100992.77;2254946;79;50797;-78
2023/06/02 00:15:55;;;;;;;;;;;;;;;24.02;45.75;100995.69;2225043;79;50306;-76
2023/06/02 00:18:58;;;;;;;;;;;;;;;24.02;45.83;100993.48;2224698;79;50166;-76
2023/06/02 00:22:03;;;;;;;;;;;;;;;24.01;45.60;100996.72;2254990;78;51524;-75
2023/06/02 00:25:05;;;;;;;;;;;;;;;24.01;45.68;101001.30;2202966;78;51181;-75
2023/06/02 00:28:07;;;;;;;;;;;;;;;24.01;45.63;100995.89;2241563;78;51396;-75
2023/06/02 00:31:09;;;;;;;;;;;;;;;24.00;45.75;100995.59;2262530;77;51555;-76
2023/06/02 00:34:10;;;;;;;;;;;;;;;23.97;46.08;100999.55;2262758;78;50284;-76
2023/06/02 00:37:12;;;;;;;;;;;;;;;23.95;46.42;100997.57;2210908;78;52324;-76
2023/06/02 00:40:14;;;;;;;;;;;;;;;23.97;46.01;100987.39;2247882;77;51360;-74
2023/06/02 00:43:15;;;;;;;;;;;;;;;23.97;46.11;100991.94;2262592;78;50356;-77
2023/06/02 00:46:17;;;;;;;;;;;;;;;23.96;46.29;100994.34;2262487;78;50659;-76
2023/06/02 00:49:18;;;;;;;;;;;;;;;23.97;46.27;100988.73;2259725;78;50578;-75
2023/06/02 00:52:20;;;;;;;;;;;;;;;23.98;46.12;100986.86;2263061;78;52262;-76
2023/06/02 00:55:22;;;;;;;;;;;;;;;23.98;45.92;100988.21;2267052;78;50611;-76
2023/06/02 00:58:23;;;;;;;;;;;;;;;23.99;45.92;100981.22;2271027;78;50188;-76
2023/06/02 01:01:25;;;;;;;;;;;;;;;23.99;45.89;100998.80;2234744;78;49588;-75
2023/06/02 01:04:26;;;;;;;;;;;;;;;23.99;45.84;100997.44;2235032;78;50323;-76
2023/06/02 01:07:29;;;;;;;;;;;;;;;23.98;45.88;101005.25;2262719;78;50221;-76
2023/06/02 01:10:31;;;;;;;;;;;;;;;23.97;45.97;101002.25;2262752;78;50429;-76
2023/06/02 01:13:33;;;;;;;;;;;;;;;23.97;45.94;100998.69;2211329;78;52617;-77
2023/06/02 01:16:35;;;;;;;;;;;;;;;23.96;45.89;101001.92;2262605;78;50690;-76
2023/06/02 01:19:38;;;;;;;;;;;;;;;23.97;45.84;101004.95;2262844;78;50157;-75
2023/06/02 01:22:43;;;;;;;;;;;;;;;23.97;45.83;101002.25;2262809;78;50634;-75
2023/06/02 01:25:44;;;;;;;;;;;;;;;23.97;45.79;101000.91;2268889;77;22360;-76
2023/06/02 01:28:46;;;;;;;;;;;;;;;23.96;45.85;101003.27;2239334;78;51509;-76
2023/06/02 01:31:49;;;;;;;;;;;;;;;23.97;45.75;101006.31;2243851;79;51444;-76
2023/06/02 01:34:55;;;;;;;;;;;;;;;23.97;45.76;101010.86;2243839;79;50268;-76
2023/06/02 01:37:58;;;;;;;;;;;;;;;23.97;45.76;101013.56;2243548;78;51368;-76
2023/06/02 01:41:04;;;;;;;;;;;;;;;23.96;45.76;101016.79;2243610;79;50426;-76
2023/06/02 01:44:03;;;;;;;;;;;;;;;23.95;45.77;101013.79;2242882;78;22243;-76
2023/06/02 01:47:05;;;;;;;;;;;;;;;23.95;45.78;101021.90;2234514;79;50265;-75
2023/06/02 01:50:06;;;;;;;;;;;;;;;23.94;45.78;101022.09;2243782;79;50050;-76
2023/06/02 01:53:08;;;;;;;;;;;;;;;23.97;45.72;101024.38;2234736;79;50032;-76
2023/06/02 01:56:10;;;;;;;;;;;;;;;23.96;45.70;101027.60;2255714;78;50245;-73
2023/06/02 01:59:11;;;;;;;;;;;;;;;23.94;45.67;101024.27;2257100;78;50575;-74
2023/06/02 02:02:13;;;;;;;;;;;;;;;23.92;45.68;101016.92;2227466;78;51150;-75
2023/06/02 02:05:15;;;;;;;;;;;;;;;23.91;45.86;101017.94;2227764;78;50228;-75
2023/06/02 02:08:17;;;;;;;;;;;;;;;23.90;45.95;101021.17;2261824;78;49914;-75
2023/06/02 02:11:18;;;;;;;;;;;;;;;23.89;45.97;101021.36;2261942;78;51515;-75
2023/06/02 02:14:20;;;;;;;;;;;;;;;23.89;46.09;101021.36;2203182;78;52337;-74
2023/06/02 02:17:25;;;;;;;;;;;;;;;23.89;46.13;101029.47;2261228;78;49887;-74
2023/06/02 02:20:25;;;;;;;;;;;;;;;23.87;46.17;101020.77;2227474;78;22360;-74
2023/06/02 02:23:27;;;;;;;;;;;;;;;23.89;46.07;101025.42;2261472;78;50269;-74
2023/06/02 02:26:29;;;;;;;;;;;;;;;23.88;46.01;101030.52;2211486;78;51130;-75
2023/06/02 02:29:30;;;;;;;;;;;;;;;23.87;46.06;101031.58;2240646;77;50546;-76
2023/06/02 02:32:34;;;;;;;;;;;;;;;23.88;46.04;101030.52;2281263;78;50381;-75
2023/06/02 02:35:36;;;;;;;;;;;;;;;23.86;46.06;101042.06;2281173;78;50626;-75
2023/06/02 02:38:37;;;;;;;;;;;;;;;23.85;46.05;101042.58;2224269;78;51226;-75
2023/06/02 02:41:39;;;;;;;;;;;;;;;23.87;46.02;101047.80;2248127;78;50030;-75
2023/06/02 02:44:40;;;;;;;;;;;;;;;23.85;46.09;101049.86;2248676;78;50150;-75
2023/06/02 02:47:42;;;;;;;;;;;;;;;23.84;46.12;101042.28;2281075;78;50414;-75
2023/06/02 02:50:44;;;;;;;;;;;;;;;23.85;46.09;101035.00;2248507;78;51383;-75
2023/06/02 02:53:45;;;;;;;;;;;;;;;23.84;46.14;101042.78;2248419;78;50455;-75
2023/06/02 02:56:47;;;;;;;;;;;;;;;23.84;46.12;101042.78;2234944;78;51387;-76
2023/06/02 02:59:49;;;;;;;;;;;;;;;23.82;46.18;101051.64;2215658;79;50524;-76
2023/06/02 03:02:51;;;;;;;;;;;;;;;23.83;46.19;101053.29;2261323;78;51147;-75
2023/06/02 03:05:54;;;;;;;;;;;;;;;23.81;46.18;101056.19;2261347;77;50590;-74
2023/06/02 03:08:56;;;;;;;;;;;;;;;23.82;46.16;101055.69;2260534;78;52314;-75
2023/06/02 03:11:57;;;;;;;;;;;;;;;23.82;46.24;101069.20;2243833;79;51403;-75
2023/06/02 03:15:00;;;;;;;;;;;;;;;23.80;46.23;101062.64;2243774;79;51634;-74
2023/06/02 03:18:03;;;;;;;;;;;;;;;23.81;46.20;101075.62;2243775;79;51496;-75
2023/06/02 03:21:06;;;;;;;;;;;;;;;23.80;46.21;101073.98;2260848;77;50236;-76
2023/06/02 03:24:10;;;;;;;;;;;;;;;23.79;46.29;101073.64;2244042;79;51562;-75
2023/06/02 03:27:13;;;;;;;;;;;;;;;23.79;46.26;101073.64;2261992;78;51070;-74
2023/06/02 03:30:14;;;;;;;;;;;;;;;23.78;46.25;101072.83;2263269;78;50294;-75
2023/06/02 03:33:16;;;;;;;;;;;;;;;23.79;46.24;101069.59;2261814;78;50384;-74
2023/06/02 03:36:19;;;;;;;;;;;;;;;23.77;46.36;101068.47;2261628;78;50257;-75
2023/06/02 03:39:21;;;;;;;;;;;;;;;23.80;46.27;101078.86;2203530;78;51706;-75
2023/06/02 03:42:22;;;;;;;;;;;;;;;23.80;46.23;101082.09;2227093;78;51499;-76
2023/06/02 03:45:24;;;;;;;;;;;;;;;23.80;46.20;101078.03;2262198;78;51390;-75
2023/06/02 03:48:25;;;;;;;;;;;;;;;23.79;46.35;101081.27;2261600;78;50215;-76
2023/06/02 03:51:27;;;;;;;;;;;;;;;23.77;46.30;101079.28;2227651;78;50308;-74
2023/06/02 03:54:29;;;;;;;;;;;;;;;23.79;46.32;101081.75;2262127;78;50684;-75
2023/06/02 03:57:30;;;;;;;;;;;;;;;23.77;46.32;101076.58;2230648;78;49996;-76
2023/06/02 04:00:32;;;;;;;;;;;;;;;23.79;46.38;101088.51;2274060;77;51497;-75
2023/06/02 04:03:36;;;;;;;;;;;;;;;23.79;46.36;101093.42;2229186;78;50878;-75
2023/06/02 04:06:37;;;;;;;;;;;;;;;23.79;46.35;101099.31;2254091;78;22352;-77
2023/06/02 04:09:39;;;;;;;;;;;;;;;23.77;46.35;101100.89;2253954;77;50236;-75
2023/06/02 04:12:41;;;;;;;;;;;;;;;23.76;46.40;101101.91;2271635;78;50325;-73
2023/06/02 04:15:42;;;;;;;;;;;;;;;23.76;46.38;101102.44;2229502;78;51673;-75
2023/06/02 04:18:44;;;;;;;;;;;;;;;23.75;46.46;101102.97;2228539;78;50345;-75
2023/06/02 04:21:45;;;;;;;;;;;;;;;23.75;46.40;101110.25;2260771;78;50588;-74
2023/06/02 04:24:47;;;;;;;;;;;;;;;23.75;46.44;101114.30;2232221;77;51362;-75
2023/06/02 04:27:49;;;;;;;;;;;;;;;23.74;46.43;101116.67;2274739;77;51144;-75
2023/06/02 04:30:52;;;;;;;;;;;;;;;23.77;46.30;101116.28;2253867;78;50503;-76
2023/06/02 04:33:55;;;;;;;;;;;;;;;23.79;46.14;101115.53;2274558;78;51559;-76
2023/06/02 04:36:56;;;;;;;;;;;;;;;23.80;46.15;101114.52;2274744;77;51535;-76
2023/06/02 04:40:01;;;;;;;;;;;;;;;23.79;46.20;101115.53;2274901;77;51408;-76
2023/06/02 04:43:01;;;;;;;;;;;;;;;23.82;46.16;101130.01;2249617;78;22452;-76
2023/06/02 04:46:06;;;;;;;;;;;;;;;23.79;46.33;101127.69;2256377;78;50417;-75
2023/06/02 04:49:08;;;;;;;;;;;;;;;23.81;46.14;101125.09;2280662;78;22406;-75
2023/06/02 04:52:09;;;;;;;;;;;;;;;23.82;46.09;101125.95;2280872;78;22237;-75
2023/06/02 04:55:11;;;;;;;;;;;;;;;23.82;45.99;101124.61;2263333;78;50217;-75
2023/06/02 04:58:13;;;;;;;;;;;;;;;23.80;45.72;101122.63;2243405;79;51454;-75
2023/06/02 05:01:14;;;;;;;;;;;;;;;23.81;45.69;101129.67;2250856;78;50567;-75
2023/06/02 05:04:16;;;;;;;;;;;;;;;23.81;45.70;101136.44;2222323;78;52566;-75
2023/06/02 05:07:18;;;;;;;;;;;;;;;23.81;45.73;101129.67;2233665;78;51485;-76
2023/06/02 05:10:19;;;;;;;;;;;;;;;23.80;44.86;101132.08;2247606;78;51415;-77
2023/06/02 05:13:22;;;;;;;;;;;;;;;23.77;44.08;101131.97;2243596;78;50177;-75
2023/06/02 05:16:24;;;;;;;;;;;;;;;23.74;43.35;101132.39;2250013;78;51519;-76
2023/06/02 05:19:25;;;;;;;;;;;;;;;23.74;42.74;101135.58;2253809;78;50632;-75
2023/06/02 05:22:29;;;;;;;;;;;;;;;23.70;43.11;101135.14;2253796;78;51467;-76
2023/06/02 05:25:31;;;;;;;;;;;;;;;23.66;42.93;101138.78;2274719;78;51398;-73
2023/06/02 05:28:33;;;;;;;;;;;;;;;23.67;42.95;101143.66;2196474;79;50091;-73
2023/06/02 05:31:34;;;;;;;;;;;;;;;23.66;43.12;101144.68;2254688;78;50339;-73
2023/06/02 05:34:36;;;;;;;;;;;;;;;23.66;43.22;101155.00;2240600;78;51458;-75
2023/06/02 05:37:38;;;;;;;;;;;;;;;23.67;43.15;101158.00;2282500;78;50731;-74
2023/06/02 05:40:40;;;;;;;;;;;;;;;23.64;43.44;101154.36;2252204;78;51456;-74
2023/06/02 05:43:41;;;;;;;;;;;;;;;23.64;43.39;101157.59;2252483;78;51443;-74
2023/06/02 05:46:43;;;;;;;;;;;;;;;23.64;43.51;101162.99;2282620;78;50698;-74
2023/06/02 05:49:45;;;;;;;;;;;;;;;23.63;43.52;101159.44;2282736;78;51534;-73
2023/06/02 05:52:46;;;;;;;;;;;;;;;23.63;43.47;101166.19;2252167;78;52363;-74
2023/06/02 05:55:48;;;;;;;;;;;;;;;23.63;43.51;101166.71;2282794;77;52171;-74
2023/06/02 05:58:49;;;;;;;;;;;;;;;23.61;43.52;101172.34;2282595;78;51380;-73
2023/06/02 06:01:51;;;;;;;;;;;;;;;23.61;43.39;101174.18;2278365;78;50608;-73
2023/06/02 06:04:53;;;;;;;;;;;;;;;23.59;43.71;101174.41;2241367;78;51237;-73
2023/06/02 06:07:54;;;;;;;;;;;;;;;23.62;43.90;101178.05;2251769;78;50175;-73
2023/06/02 06:10:56;;;;;;;;;;;;;;;23.62;44.02;101182.62;2282686;78;50611;-74
2023/06/02 06:14:00;;;;;;;;;;;;;;;23.60;44.03;101192.27;2227120;79;50375;-74
2023/06/02 06:17:01;;;;;;;;;;;;;;;23.61;43.92;101193.09;2266188;77;22531;-74
2023/06/02 06:20:03;;;;;;;;;;;;;;;23.59;43.75;101189.78;2266497;77;50597;-74
2023/06/02 06:23:04;;;;;;;;;;;;;;;23.58;43.88;101191.66;2266463;77;50029;-75
2023/06/02 06:26:06;;;;;;;;;;;;;;;23.58;43.89;101197.55;2266354;77;50625;-73
2023/06/02 06:29:07;;;;;;;;;;;;;;;23.58;43.74;101200.26;2237386;79;51410;-73
2023/06/02 06:32:09;;;;;;;;;;;;;;;23.57;43.60;101202.13;2280166;76;51401;-74
2023/06/02 06:35:10;;;;;;;;;;;;;;;23.54;43.56;101195.80;2250697;78;52124;-71
2023/06/02 06:38:12;;;;;;;;;;;;;;;23.55;43.52;101197.97;2282397;78;51482;-74
2023/06/02 06:41:14;;;;;;;;;;;;;;;23.55;43.50;101193.39;2252092;78;52568;-74
2023/06/02 06:44:15;;;;;;;;;;;;;;;23.55;43.53;101197.45;2252395;78;51477;-74
2023/06/02 06:47:18;;;;;;;;;;;;;;;23.54;43.51;101190.91;2251960;78;51459;-74
2023/06/02 06:50:19;;;;;;;;;;;;;;;23.53;43.52;101199.54;2252305;78;51446;-73
2023/06/02 06:53:21;;;;;;;;;;;;;;;23.54;43.52;101206.59;2252162;78;52410;-73
2023/06/02 06:56:22;;;;;;;;;;;;;;;23.52;43.47;101214.06;2252370;78;51524;-74
2023/06/02 06:59:24;;;;;;;;;;;;;;;23.54;43.44;101217.41;2282732;78;50604;-73
2023/06/02 07:02:26;;;;;;;;;;;;;;;23.54;43.47;101219.28;2253788;78;51469;-74
2023/06/02 07:05:28;;;;;;;;;;;;;;;23.54;43.45;101221.45;2195063;79;52498;-74
2023/06/02 07:08:30;;;;;;;;;;;;;;;23.53;43.49;101221.16;2215314;78;50271;-73
2023/06/02 07:11:32;;;;;;;;;;;;;;;23.51;43.46;101224.56;2245322;78;50247;-73
2023/06/02 07:14:33;;;;;;;;;;;;;;;23.51;43.55;101233.19;2248465;78;49686;-73
2023/06/02 07:17:35;;;;;;;;;;;;;;;23.52;43.49;101237.55;2219952;78;51090;-73
2023/06/02 07:20:36;;;;;;;;;;;;;;;23.57;43.50;101238.60;2280793;78;50591;-74
2023/06/02 07:23:38;;;;;;;;;;;;;;;23.64;43.37;101238.64;2250176;78;50688;-72
2023/06/02 07:26:39;;;;;;;;;;;;;;;23.64;43.32;101239.47;2250015;78;51579;-73
2023/06/02 07:29:41;;;;;;;;;;;;;;;23.64;43.35;101241.34;2225918;78;52136;-73
2023/06/02 07:32:43;;;;;;;;;;;;;;;23.64;43.41;101235.94;2228727;78;51402;-73
2023/06/02 07:35:44;;;;;;;;;;;;;;;23.62;43.41;101236.13;2227028;78;50063;-73
2023/06/02 07:38:50;;;;;;;;;;;;;;;23.62;43.52;101236.13;2261139;78;50167;-73
2023/06/02 07:41:49;;;;;;;;;;;;;;;23.61;43.55;101245.28;2260351;78;22323;-73
2023/06/02 07:44:51;;;;;;;;;;;;;;;23.59;43.57;101241.94;2230372;78;51474;-73
2023/06/02 07:47:52;;;;;;;;;;;;;;;23.57;43.62;101243.17;2271376;78;51413;-73
2023/06/02 07:50:54;;;;;;;;;;;;;;;23.59;43.61;101246.52;2274579;77;50255;-74
2023/06/02 07:53:55;;;;;;;;;;;;;;;23.58;43.63;101246.19;2253355;78;51525;-74
2023/06/02 07:56:57;;;;;;;;;;;;;;;23.56;43.65;101252.33;2253317;78;51328;-74
2023/06/02 07:59:59;;;;;;;;;;;;;;;23.56;43.70;101259.08;2274541;77;51511;-73
2023/06/02 08:03:00;;;;;;;;;;;;;;;23.55;43.70;101255.52;2274620;78;51354;-73
2023/06/02 08:06:02;;;;;;;;;;;;;;;23.56;43.74;101260.44;2229179;78;51238;-73
2023/06/02 08:09:04;;;;;;;;;;;;;;;23.55;43.75;101256.87;2253232;77;50044;-74
2023/06/02 08:12:06;;;;;;;;;;;;;;;23.55;43.76;101266.33;2274721;78;51526;-74
2023/06/02 08:15:08;;;;;;;;;;;;;;;23.55;43.75;101266.85;2268326;78;50572;-73
2023/06/02 08:18:18;;;;;;;;;;;;;;;23.54;43.77;101259.27;2203119;78;51114;-74
2023/06/02 08:21:16;;;;;;;;;;;;;;;23.53;43.78;101264.37;2226658;78;23486;-75
2023/06/02 08:24:20;;;;;;;;;;;;;;;23.53;43.80;101268.42;2261129;78;52296;-74
2023/06/02 08:27:22;;;;;;;;;;;;;;;23.52;43.81;101267.26;2227345;78;23141;-74
2023/06/02 08:30:23;;;;;;;;;;;;;;;23.52;43.82;101270.78;2261167;78;50688;-74
2023/06/02 08:33:25;;;;;;;;;;;;;;;23.51;43.83;101270.48;2203013;78;52659;-74
2023/06/02 08:36:27;;;;;;;;;;;;;;;23.52;43.82;101274.84;2226952;78;50214;-73
2023/06/02 08:39:29;;;;;;;;;;;;;;;23.54;43.79;101271.42;2261289;78;50265;-74
2023/06/02 08:42:31;;;;;;;;;;;;;;;23.52;43.81;101275.36;2227563;78;51548;-74
2023/06/02 08:45:32;;;;;;;;;;;;;;;23.53;43.79;101272.47;2228818;78;52312;-74
2023/06/02 08:48:36;;;;;;;;;;;;;;;23.53;43.78;101275.17;2226888;78;52562;-74
2023/06/02 08:51:37;;;;;;;;;;;;;;;23.56;43.75;101276.64;2227689;78;50257;-74
2023/06/02 08:54:40;;;;;;;;;;;;;;;23.55;43.76;101277.66;2261312;78;50254;-74
2023/06/02 08:57:42;;;;;;;;;;;;;;;23.57;43.72;101284.53;2227005;78;50618;-74
2023/06/02 09:00:43;;;;;;;;;;;;;;;23.60;43.68;101290.87;2227244;78;50257;-74
2023/06/02 09:03:48;;;;;;;;;;;;;;;23.60;43.64;101282.77;2227023;78;53791;-73
2023/06/02 09:06:50;;;;;;;;;;;;;;;23.59;43.65;101287.87;2261193;78;50244;-74
2023/06/02 09:09:53;;;;;;;;;;;;;;;23.60;43.63;101284.12;2203163;78;52402;-74
2023/06/02 09:12:54;;;;;;;;;;;;;;;23.59;43.60;101281.11;2231181;78;50630;-74
2023/06/02 09:15:59;;;;;;;;;;;;;;;23.58;43.65;101290.27;2225425;78;50342;-73
2023/06/02 09:19:01;;;;;;;;;;;;;;;23.57;43.65;101287.23;2260456;77;51500;-74
2023/06/02 09:22:06;;;;;;;;;;;;;;;23.58;43.61;101289.41;2260821;78;50555;-74
2023/06/02 09:25:09;;;;;;;;;;;;;;;23.57;43.60;101293.98;2228653;78;51443;-74
2023/06/02 09:28:10;;;;;;;;;;;;;;;23.58;43.60;101294.31;2259611;78;51355;-73
2023/06/02 09:31:13;;;;;;;;;;;;;;;23.61;43.55;101295.26;2230193;78;50303;-74
2023/06/02 09:34:15;;;;;;;;;;;;;;;23.61;43.57;101299.31;2247114;78;52636;-74
2023/06/02 09:37:17;;;;;;;;;;;;;;;23.62;43.56;101298.27;2273043;78;50633;-74
2023/06/02 09:40:28;;;;;;;;;;;;;;;23.63;43.54;101299.92;2273196;78;50243;-74
2023/06/02 09:43:30;;;;;;;;;;;;;;;23.63;43.54;101293.69;2279738;77;51530;-73
2023/06/02 09:46:33;;;;;;;;;;;;;;;23.62;43.54;101296.91;2254467;77;51189;-73
2023/06/02 09:49:39;;;;;;;;;;;;;;;23.62;43.54;101306.37;2292609;76;50261;-74
2023/06/02 09:52:41;;;;;;;;;;;;;;;23.63;43.53;101303.97;2293710;77;51580;-74
2023/06/02 09:55:43;;;;;;;;;;;;;;;23.63;43.51;101314.78;2265069;77;51544;-74
2023/06/02 09:58:44;;;;;;;;;;;;;;;23.65;43.46;101318.13;2293491;77;51428;-74
2023/06/02 10:01:47;;;;;;;;;;;;;;;23.63;43.46;101308.55;2293742;76;51340;-73
2023/06/02 10:04:48;;;;;;;;;;;;;;;23.62;43.46;101311.77;2265200;77;50205;-73
2023/06/02 10:08:03;;;;;;;;;;;;;;;23.62;43.43;101309.59;2293546;77;50643;-74
2023/06/02 10:11:09;;;;;;;;;;;;;;;23.61;43.43;101318.22;2293302;76;50250;-74
2023/06/02 10:14:22;;;;;;;;;;;;;;;23.61;43.42;101315.52;2293234;77;51452;-73
2023/06/02 10:17:37;;;;;;;;;;;;;;;23.61;43.38;101319.58;2280207;77;51624;-73
2023/06/02 10:20:40;;;;;;;;;;;;;;;23.61;43.39;101322.28;2294204;76;52210;-73
2023/06/02 10:23:47;;;;;;;;;;;;;;;23.63;43.34;101320.70;2267805;77;52311;-74
2023/06/02 10:27:06;;;;;;;;;;;;;;;23.63;43.32;101324.76;2294198;77;51519;-73
2023/06/02 10:30:07;;;;;;;;;;;;;;;23.63;43.30;101326.94;2293827;76;50221;-74
2023/06/02 10:33:09;;;;;;;;;;;;;;;23.65;43.28;101324.87;2294394;77;50419;-74
2023/06/02 10:36:13;;;;;;;;;;;;;;;23.64;43.28;101329.97;2267881;77;51698;-75
2023/06/02 10:39:32;;;;;;;;;;;;;;;23.63;43.27;101336.39;2268513;76;22312;-74
2023/06/02 10:42:34;;;;;;;;;;;;;;;23.64;43.23;101330.50;2294314;77;50702;-74
2023/06/02 10:45:35;;;;;;;;;;;;;;;23.63;43.20;101328.29;2280748;77;50312;-74
2023/06/02 10:48:38;;;;;;;;;;;;;;;23.63;43.26;101332.86;2240142;77;52528;-75
2023/06/02 10:51:41;;;;;;;;;;;;;;;23.61;43.26;101325.47;2265046;77;50262;-74
2023/06/02 10:54:42;;;;;;;;;;;;;;;23.61;43.22;101334.44;2274063;77;49975;-73
2023/06/02 10:58:03;;;;;;;;;;;;;;;23.61;43.18;101338.98;2293425;77;50280;-73
2023/06/02 11:01:07;;;;;;;;;;;;;;;23.62;43.16;101334.73;2264642;77;50901;-73
2023/06/02 11:04:26;;;;;;;;;;;;;;;23.61;43.21;101329.03;2293715;77;51343;-74
2023/06/02 11:07:29;;;;;;;;;;;;;;;23.61;43.17;101337.63;2293471;77;51559;-73
2023/06/02 11:10:41;;;;;;;;;;;;;;;23.61;43.14;101331.73;2293695;76;50261;-74
2023/06/02 11:13:56;;;;;;;;;;;;;;;23.62;43.11;101325.28;2237788;77;49819;-74
2023/06/02 11:17:16;;;;;;;;;;;;;;;23.61;43.11;101320.06;2227792;79;51452;-75
2023/06/02 11:20:18;;;;;;;;;;;;;;;23.61;43.06;101322.28;2255631;79;50720;-73
2023/06/02 11:23:19;;;;;;;;;;;;;;;23.62;43.08;101325.80;2255570;79;50434;-74
2023/06/02 11:26:22;;;;;;;;;;;;;;;23.63;43.06;101328.81;2265866;77;51568;-74
2023/06/02 11:29:23;;;;;;;;;;;;;;;23.62;43.07;101313.12;2241382;78;51485;-74
2023/06/02 11:32:25;;;;;;;;;;;;;;;23.61;43.05;101307.42;2244191;78;51407;-74
2023/06/02 11:35:27;;;;;;;;;;;;;;;23.62;43.08;101319.88;2260656;78;50703;-73
2023/06/02 11:38:32;;;;;;;;;;;;;;;23.59;43.13;101327.04;2228081;78;52309;-74
2023/06/02 11:41:33;;;;;;;;;;;;;;;23.60;43.14;101325.16;2260567;77;51484;-73
2023/06/02 11:44:35;;;;;;;;;;;;;;;23.60;43.16;101319.77;2260520;78;51594;-74
2023/06/02 11:47:36;;;;;;;;;;;;;;;23.63;43.11;101328.81;2228341;78;51427;-73
2023/06/02 11:50:38;;;;;;;;;;;;;;;23.64;43.11;101322.39;2228246;78;50944;-74
2023/06/02 11:53:49;;;;;;;;;;;;;;;23.62;43.14;101322.58;2204776;78;51726;-73
2023/06/02 11:56:44;;;;;;;;;;;;;;;23.62;43.13;101321.75;2265614;77;22340;-73
2023/06/02 11:59:51;;;;;;;;;;;;;;;23.62;43.14;101321.23;2256072;78;50769;-73
2023/06/02 12:02:57;;;;;;;;;;;;;;;23.62;43.16;101324.45;2227189;78;22188;-74
2023/06/02 12:05:55;;;;;;;;;;;;;;;23.63;43.14;101322.88;2226093;78;22249;-74
2023/06/02 12:08:56;;;;;;;;;;;;;;;23.63;43.14;101318.00;2227510;78;22583;-74
2023/06/02 12:11:59;;;;;;;;;;;;;;;23.65;43.10;101329.45;2261466;78;51371;-73
2023/06/02 12:15:02;;;;;;;;;;;;;;;23.64;43.11;101319.69;2226769;78;52207;-73
2023/06/02 12:18:04;;;;;;;;;;;;;;;23.63;43.13;101328.81;2259007;78;51452;-74
2023/06/02 12:21:06;;;;;;;;;;;;;;;23.65;43.12;101324.05;2261481;78;51471;-73
2023/06/02 12:24:07;;;;;;;;;;;;;;;23.64;43.12;101324.57;2227323;78;51999;-73
2023/06/02 12:27:10;;;;;;;;;;;;;;;23.64;43.17;101322.39;2235024;78;52558;-73
2023/06/02 12:30:12;;;;;;;;;;;;;;;23.66;43.11;101325.21;2219732;79;51511;-73
2023/06/02 12:33:14;;;;;;;;;;;;;;;23.66;43.14;101330.61;2241632;78;50599;-73
2023/06/02 12:36:16;;;;;;;;;;;;;;;23.67;43.11;101327.39;2262315;78;50694;-74
2023/06/02 12:39:18;;;;;;;;;;;;;;;23.67;43.11;101327.39;2257754;78;50259;-73
2023/06/02 12:42:20;;;;;;;;;;;;;;;23.68;43.09;101324.47;2257925;78;51489;-73
2023/06/02 12:45:21;;;;;;;;;;;;;;;23.67;43.15;101330.92;2262489;78;51564;-73
2023/06/02 12:48:23;;;;;;;;;;;;;;;23.68;43.15;101331.22;2262342;78;50653;-73
2023/06/02 12:51:25;;;;;;;;;;;;;;;23.69;43.11;101332.91;2233182;78;52470;-74
2023/06/02 12:54:26;;;;;;;;;;;;;;;23.68;43.15;101320.41;2257785;78;50636;-73
2023/06/02 12:57:28;;;;;;;;;;;;;;;23.68;43.18;101328.52;2254622;78;50696;-73
2023/06/02 13:00:30;;;;;;;;;;;;;;;23.68;43.18;101338.50;2263132;78;51562;-73
2023/06/02 13:03:31;;;;;;;;;;;;;;;23.68;43.21;101337.15;2234319;78;51188;-73
2023/06/02 13:06:38;;;;;;;;;;;;;;;23.68;43.21;101331.75;2257369;78;50363;-74
2023/06/02 13:09:36;;;;;;;;;;;;;;;23.67;43.18;101330.09;2261767;78;22341;-74
2023/06/02 13:12:42;;;;;;;;;;;;;;;23.69;43.12;101349.64;2266044;77;51435;-74
2023/06/02 13:15:41;;;;;;;;;;;;;;;23.68;43.16;101335.27;2274180;77;22432;-74
2023/06/02 13:18:46;;;;;;;;;;;;;;;23.68;43.21;101343.38;2262181;78;50250;-73
2023/06/02 13:21:48;;;;;;;;;;;;;;;23.68;43.18;101342.03;2262438;78;50108;-74
2023/06/02 13:24:49;;;;;;;;;;;;;;;23.69;43.18;101343.72;2235111;78;50278;-74
2023/06/02 13:27:51;;;;;;;;;;;;;;;23.70;43.17;101345.89;2234293;78;51077;-74
2023/06/02 13:30:53;;;;;;;;;;;;;;;23.70;43.16;101345.37;2234441;78;50596;-74
2023/06/02 13:33:54;;;;;;;;;;;;;;;23.70;43.16;101330.52;2254093;78;50427;-74
2023/06/02 13:36:56;;;;;;;;;;;;;;;23.70;43.15;101341.31;2243353;79;50377;-74
2023/06/02 13:39:58;;;;;;;;;;;;;;;23.70;43.20;101346.72;2188119;79;49517;-74
2023/06/02 13:42:59;;;;;;;;;;;;;;;23.70;43.20;101348.08;2217402;77;50029;-74
2023/06/02 13:46:01;;;;;;;;;;;;;;;23.70;43.19;101344.02;2222151;78;50612;-74
2023/06/02 13:49:03;;;;;;;;;;;;;;;23.72;43.15;101364.13;2260425;78;50363;-74
2023/06/02 13:52:05;;;;;;;;;;;;;;;23.72;43.15;101350.62;2260661;78;51619;-74
2023/06/02 13:55:07;;;;;;;;;;;;;;;23.72;43.16;101344.36;2228413;78;51546;-74
2023/06/02 13:58:08;;;;;;;;;;;;;;;23.73;43.16;101354.15;2227942;77;49804;-74
2023/06/02 14:01:10;;;;;;;;;;;;;;;23.74;43.18;101366.13;2228479;78;51365;-73
2023/06/02 14:04:11;;;;;;;;;;;;;;;23.75;43.12;101365.08;2204808;78;52362;-73
2023/06/02 14:07:13;;;;;;;;;;;;;;;23.75;43.10;101363.73;2228195;78;51461;-74
2023/06/02 14:10:15;;;;;;;;;;;;;;;23.76;43.11;101368.08;2228355;78;51460;-73
2023/06/02 14:13:16;;;;;;;;;;;;;;;23.76;43.11;101370.78;2228538;78;50036;-74
2023/06/02 14:16:18;;;;;;;;;;;;;;;23.79;43.10;101363.66;2221960;78;52202;-74
2023/06/02 14:19:19;;;;;;;;;;;;;;;23.79;43.13;101373.61;2260635;77;51539;-74
2023/06/02 14:22:23;;;;;;;;;;;;;;;23.80;43.14;101372.59;2260673;78;51364;-74
2023/06/02 14:25:25;;;;;;;;;;;;;;;23.80;43.11;101368.53;2260500;78;50178;-74
2023/06/02 14:28:27;;;;;;;;;;;;;;;23.81;43.14;101364.78;2204745;78;51042;-74
2023/06/02 14:31:28;;;;;;;;;;;;;;;23.81;43.15;101366.97;2228423;78;51496;-74
2023/06/02 14:34:30;;;;;;;;;;;;;;;23.82;43.16;101366.47;2266548;78;50211;-74
2023/06/02 14:37:31;;;;;;;;;;;;;;;23.83;43.15;101375.72;2247116;78;50316;-74
2023/06/02 14:40:33;;;;;;;;;;;;;;;23.84;43.14;101367.08;2247070;78;51082;-73
2023/06/02 14:43:35;;;;;;;;;;;;;;;23.84;43.15;101370.64;2280005;77;50698;-74
2023/06/02 14:46:36;;;;;;;;;;;;;;;23.84;43.16;101374.70;2259551;77;50271;-74
2023/06/02 14:49:38;;;;;;;;;;;;;;;23.85;43.15;101383.11;2255553;79;50694;-73
2023/06/02 14:52:40;;;;;;;;;;;;;;;23.87;43.17;101380.22;2227893;79;52351;-73
2023/06/02 14:55:41;;;;;;;;;;;;;;;23.87;43.17;101382.92;2228134;79;49913;-73
2023/06/02 14:58:43;;;;;;;;;;;;;;;23.89;43.13;101387.59;2255379;79;50630;-74
2023/06/02 15:01:45;;;;;;;;;;;;;;;23.88;43.19;101385.93;2255644;79;51416;-73
2023/06/02 15:04:46;;;;;;;;;;;;;;;23.89;43.20;101383.53;2227855;79;49430;-73
2023/06/02 15:07:48;;;;;;;;;;;;;;;23.89;43.18;101378.98;2227719;79;50220;-73
2023/06/02 15:10:49;;;;;;;;;;;;;;;23.91;43.19;101397.69;2255557;79;50262;-74
2023/06/02 15:13:51;;;;;;;;;;;;;;;23.92;43.17;101388.56;2266820;77;50587;-74
2023/06/02 15:16:53;;;;;;;;;;;;;;;23.92;43.18;101396.67;2252334;77;52486;-74
2023/06/02 15:19:54;;;;;;;;;;;;;;;23.93;43.19;101380.76;2293663;76;50333;-73
2023/06/02 15:22:56;;;;;;;;;;;;;;;23.94;43.19;101397.80;2293720;77;50282;-74
2023/06/02 15:25:57;;;;;;;;;;;;;;;23.95;43.16;101388.16;2293609;77;50180;-74
2023/06/02 15:28:59;;;;;;;;;;;;;;;23.95;43.19;101374.64;2264586;76;51603;-74
2023/06/02 15:32:01;;;;;;;;;;;;;;;23.96;43.17;101388.98;2264901;77;51367;-74
2023/06/02 15:35:03;;;;;;;;;;;;;;;23.97;43.17;101390.64;2293038;77;51437;-73